Blue Hill Meteorological Observatory 2

42° 12' 44"N, 71° 06' 53"W, Elevation 635 ft.
Eastern Time

Hourly observations for the last 72 hours

Date Time Temperature (°F) Humi-
dity

(%)
Wind
(mph)
Pressure Rain (in) Sun
(W/m2)
ET
(in)
Air Dew 6 Hour 1 Hr 3 Hr 6 Hr Day
Alt
(in)
Sea
Level

(mb)
Max Min
22 10:00 80.3 65.6 61 SW 13 G 22 29.93 1013.6 0.00 861 0.042
22 09:00 77.1 66.6 70 WSW 10 G 21 29.94 1014.1 0.00 752 0.023
22 08:00 71.9 65.0 79 WSW 11 G 15 29.95 1014.3 0.00 596 0.010
22 07:00 65.3 61.3 65.3 56.5 87 WSW 13 G 20 29.96 1014.5 0.00 413 0.003
22 06:00 59.0 57.9 96 WSW 12 G 16 29.96 1014.7 0.00 209 0.002
22 05:00 56.6 55.8 97 SW 9 G 12 29.94 1014.0 0.00 25 0.002
22 04:00 58.1 57.3 97 SW 10 G 13 29.93 1013.5 0.00 0 0.002
22 03:00 59.1 58.0 96 SW 10 G 13 29.93 1013.5 0.00 0 0.002
22 02:00 59.7 58.0 94 WNW 10 G 17 29.94 1013.8 0.00 0 0.001
22 01:00 60.3 58.3 66.4 58.9 93 SW 16 G 19 29.93 1013.5 0.00 0 0.000
22 00:00 59.3 57.6 94 SW 14 G 17 29.93 1013.6 0.00 0 0.211
21 23:00 59.1 57.1 93 SSW 11 G 15 29.94 1013.8 0.00 0 0.210
21 22:00 60.7 57.8 90 S 11 G 16 29.94 1013.9 0.00 0 0.209
21 21:00 63.5 59.2 86 S 9 G 12 29.95 1014.4 0.00 0 0.208
21 20:00 64.5 59.9 85 NW 3 G 9 29.97 1014.8 0.00 0 0.207
21 19:00 66.4 60.4 83.8 66.4 81 S 14 G 21 29.92 1013.4 0.00 0 0.204
21 18:00 72.0 62.9 73 S 15 G 24 29.92 1013.1 0.00 54 0.197
21 17:00 77.2 65.4 67 S 18 G 25 29.90 1012.6 0.00 227 0.184
21 16:00 80.2 67.4 65 S 12 G 21 29.90 1012.7 0.00 508 0.167
21 15:00 81.9 68.1 63 S 14 G 24 29.90 1012.6 0.00 519 0.146
21 14:00 83.7 68.4 60 S 16 G 22 29.91 1013.0 0.00 788 0.121
21 13:00 82.3 68.0 82.5 55.5 62 S 14 G 17 29.93 1013.5 0.00 870 0.095
21 12:00 80.6 68.2 66 S 11 G 18 29.94 1013.9 0.00 907 0.070
21 11:00 77.1 66.6 70 S 8 G 11 29.96 1014.7 0.00 909 0.047
21 10:00 72.6 65.0 77 SW 8 G 13 29.98 1015.1 0.00 819 0.028
21 09:00 67.9 61.9 81 SW 6 G 11 29.99 1015.5 0.00 724 0.014
21 08:00 61.6 59.6 93 SW 10 G 14 29.99 1015.6 0.00 534 0.005
21 07:00 55.5 55.5 55.5 50.7 100 SW 12 G 15 29.98 1015.4 0.00 295 0.001
21 06:00 53.1 53.1 100 SSW 10 G 14 29.99 1015.4 0.00 81 0.000
21 05:00 51.7 51.7 100 SW 11 G 14 29.98 1015.3 0.00 32 0.000
21 04:00 50.9 50.6 99 SW 11 G 14 29.97 1014.8 0.00 0 0.000
21 03:00 50.9 50.6 99 SSW 12 G 14 29.96 1014.6 0.00 0 0.000
21 02:00 51.1 50.8 99 S 10 G 14 29.98 1015.1 0.00 0 0.000
21 01:00 51.1 50.6 57.0 51.1 98 S 11 G 13 29.99 1015.4 0.00 0 0.000
21 00:00 51.9 51.4 98 S 11 G 13 30.00 1016.0 0.00 0 0.131
20 23:00 52.5 52.0 98 S 13 G 19 30.01 1016.3 0.00 0 0.131
20 22:00 53.1 52.3 97 S 12 G 21 30.02 1016.8 0.00 0 0.131
20 21:00 53.4 52.0 95 SSE 11 G 19 30.02 1016.7 0.00 0 0.131
20 20:00 54.6 52.9 94 SE 9 G 13 30.00 1016.1 0.00 0 0.130
20 19:00 57.0 54.7 65.6 57.0 92 ESE 11 G 13 30.00 1015.8 0.00 0 0.129
20 18:00 60.0 55.8 86 ESE 8 G 11 30.01 1016.3 0.00 77 0.124
20 17:00 61.4 56.2 83 ENE 7 G 11 30.01 1016.5 0.00 160 0.116
20 16:00 65.0 58.3 79 E 4 G 8 30.02 1016.6 0.00 452 0.104
20 15:00 65.4 58.0 77 ESE 5 G 11 30.03 1017.1 0.00 605 0.089
20 14:00 64.2 57.6 79 E 4 G 11 30.05 1017.5 0.00 853 0.071
20 13:00 63.4 57.5 63.5 51.9 81 E 5 G 13 30.06 1017.9 0.00 951 0.053
20 12:00 60.9 55.7 83 ENE 7 G 12 30.07 1018.3 0.00 613 0.039
20 11:00 59.2 55.3 87 E 4 G 10 30.08 1018.7 0.00 554 0.028
20 10:00 58.0 55.1 90 ENE 7 G 15 30.08 1018.5 0.00 443 0.019
20 09:00 56.3 56.0 99 NE 9 G 13 30.07 1018.2 0.00 441 0.010
20 08:00 53.9 53.9 100 NE 7 G 12 30.08 1018.7 0.00 243 0.004
20 07:00 51.9 51.9 51.9 48.5 100 ENE 7 G 11 30.07 1018.4 0.00 221 0.001
20 06:00 50.3 50.3 100 NE 9 G 11 30.05 1017.7 0.00 139 0.000
20 05:00 48.9 48.9 100 NE 9 G 13 30.05 1017.5 0.00 30 0.000
20 04:00 48.6 48.6 100 NNE 8 G 11 30.04 1017.4 0.00 0 0.000
20 03:00 48.7 48.7 100 NNE 7 G 10 30.04 1017.3 0.00 0 0.000
20 02:00 48.9 48.9 100 NNE 7 G 11 30.03 1017.0 0.00 0 0.000
20 01:00 49.1 49.1 49.6 48.0 100 N 5 G 8 30.05 1017.5 0.01 0.00 0 0.000
20 00:00 48.8 48.8 100 NNE 4 G 9 30.06 1017.8 0.17 0 0.042
19 23:00 48.4 48.4 100 ENE 8 G 12 30.05 1017.5 0.17 0 0.042
19 22:00 48.3 48.3 100 NE 9 G 12 30.06 1017.9 0.01 0.17 0 0.042
19 21:00 48.7 48.7 100 ENE 8 G 16 30.07 1018.3 0.17 0 0.042
19 20:00 49.2 49.2 100 ENE 10 G 17 30.07 1018.3 0.01 0.17 0 0.042
19 19:00 49.5 49.5 52.1 49.4 100 ENE 8 G 14 30.06 1017.8 0.01 0.01 0.16 0 0.042
19 18:00 49.9 49.9 100 NE 8 G 16 30.05 1017.5 0.01 0.16 23 0.041
19 17:00 50.4 50.4 100 ENE 11 G 18 30.03 1017.1 0.15 53 0.040
19 16:00 51.5 51.5 100 ENE 9 G 19 30.03 1017.0 0.15 105 0.038
19 15:00 51.8 51.8 100 ENE 10 G 19 30.02 1016.7 0.15 128 0.035
19 14:00 51.7 51.7 100 ENE 9 G 19 30.02 1016.7 0.15 218 0.031
19 13:00 51.5 51.5 52.4 50.6 100 ENE 10 G 19 30.03 1017.1 0.03 0.07 0.15 197 0.027
19 12:00 51.5 51.5 100 ENE 11 G 22 30.04 1017.3 0.01 0.15 229 0.020
19 11:00 51.4 51.4 100 NE 11 G 21 30.05 1017.7 0.02 0.14 323 0.013

Data generated by WxSolution Version 1.9.1.9, Build 2022.03.27.